createdAt,value
2019-05-09T00:01:04.080Z,9.03
2019-05-09T00:03:33.513Z,7.37
2019-05-09T00:06:04.513Z,7.07
2019-05-09T00:08:33.586Z,8.27
2019-05-09T00:11:03.738Z,8.73
2019-05-09T00:13:34.107Z,7.50
2019-05-09T00:16:03.756Z,6.83
2019-05-09T00:18:33.737Z,7.03
2019-05-09T00:21:13.335Z,9.33
2019-05-09T00:23:43.695Z,6.73
2019-05-09T00:26:13.422Z,6.93
2019-05-09T00:28:47.533Z,7.77
2019-05-09T00:31:43.915Z,6.60
2019-05-09T00:34:16.168Z,6.70
2019-05-09T00:36:44.791Z,9.23
2019-05-09T00:39:13.652Z,6.60
2019-05-09T00:41:43.525Z,6.53
2019-05-09T00:44:19.421Z,6.53
2019-05-09T00:46:57.501Z,7.33
2019-05-09T00:49:27.237Z,7.23
2019-05-09T00:51:56.438Z,6.80
2019-05-09T00:54:25.057Z,6.87
2019-05-09T00:56:54.098Z,7.57
2019-05-09T00:59:24.109Z,7.17
2019-05-09T01:01:54.318Z,8.97
2019-05-09T01:04:24.178Z,8.93
2019-05-09T01:06:54.039Z,7.10
2019-05-09T01:09:24.164Z,8.50
2019-05-09T01:11:53.458Z,8.17
2019-05-09T01:14:23.442Z,9.03
2019-05-09T01:16:53.474Z,9.37
2019-05-09T01:19:23.399Z,9.70
2019-05-09T01:21:54.148Z,9.80
2019-05-09T01:24:23.233Z,9.90
2019-05-09T01:26:54.195Z,10.43
2019-05-09T01:29:24.186Z,10.83
2019-05-09T01:31:55.026Z,11.67
2019-05-09T01:34:27.272Z,12.23
2019-05-09T01:37:06.285Z,13.27
2019-05-09T01:39:36.235Z,10.43
2019-05-09T01:42:06.113Z,13.23
2019-05-09T01:44:35.515Z,12.97
2019-05-09T01:47:04.572Z,11.70
2019-05-09T01:49:34.355Z,12.30
2019-05-09T01:52:03.777Z,13.77
2019-05-09T01:54:33.386Z,13.53
2019-05-09T01:57:03.266Z,12.73
2019-05-09T01:59:33.873Z,13.00
2019-05-09T02:02:08.154Z,15.20
2019-05-09T02:04:33.759Z,13.67
2019-05-09T02:07:04.126Z,13.37
2019-05-09T02:09:34.228Z,13.13
2019-05-09T02:12:04.070Z,13.50
2019-05-09T02:14:46.036Z,15.23
2019-05-09T02:17:38.923Z,11.97
2019-05-09T02:20:08.374Z,15.20
2019-05-09T02:22:37.624Z,13.50
2019-05-09T02:25:07.440Z,14.90
2019-05-09T02:27:36.087Z,15.00
2019-05-09T02:30:06.469Z,12.77
2019-05-09T02:32:35.699Z,13.10
2019-05-09T02:35:05.371Z,13.67
2019-05-09T02:37:34.445Z,14.13
2019-05-09T02:40:03.358Z,14.53
2019-05-09T02:42:32.060Z,16.20
2019-05-09T02:45:00.787Z,15.53
2019-05-09T02:47:29.433Z,14.03
2019-05-09T02:49:59.076Z,15.57
2019-05-09T02:52:28.780Z,13.43
2019-05-09T02:54:58.537Z,14.70
2019-05-09T02:57:29.372Z,15.37
2019-05-09T03:00:29.509Z,14.70
2019-05-09T03:03:13.037Z,14.57
2019-05-09T03:05:42.028Z,15.93
2019-05-09T03:08:10.732Z,15.53
2019-05-09T03:10:39.397Z,15.80
2019-05-09T03:13:09.426Z,15.97
2019-05-09T03:15:39.361Z,15.10
2019-05-09T03:18:09.164Z,17.97
2019-05-09T03:20:59.777Z,16.23
2019-05-09T03:23:28.814Z,18.67
2019-05-09T03:25:58.820Z,16.20
2019-05-09T03:28:43.723Z,15.73
2019-05-09T03:31:14.562Z,17.17
2019-05-09T03:33:44.043Z,16.73
2019-05-09T03:36:12.959Z,19.50
2019-05-09T03:38:41.633Z,16.70
2019-05-09T03:41:10.842Z,18.53
2019-05-09T03:43:40.049Z,19.23
2019-05-09T03:46:24.561Z,18.07
2019-05-09T03:48:58.140Z,21.77
2019-05-09T03:51:27.530Z,17.47
2019-05-09T03:53:57.591Z,20.00
2019-05-09T03:56:31.439Z,20.47
2019-05-09T03:59:00.066Z,19.80
2019-05-09T04:01:29.009Z,21.03
2019-05-09T04:03:58.507Z,20.87
2019-05-09T04:06:28.207Z,18.50
2019-05-09T04:08:58.513Z,19.50
2019-05-09T04:11:27.847Z,18.33
2019-05-09T04:14:00.924Z,18.60
2019-05-09T04:16:30.144Z,18.13
2019-05-09T04:18:58.806Z,21.87
2019-05-09T04:21:28.071Z,20.67
2019-05-09T04:23:58.538Z,20.07
2019-05-09T04:26:51.222Z,23.00
2019-05-09T04:29:19.936Z,22.50
2019-05-09T04:31:49.189Z,20.43
2019-05-09T04:34:18.534Z,18.60
2019-05-09T04:36:48.373Z,21.20
2019-05-09T04:39:23.360Z,18.93
2019-05-09T04:41:48.928Z,21.17
2019-05-09T04:44:28.408Z,17.90
2019-05-09T04:47:00.162Z,19.97
2019-05-09T04:49:30.049Z,23.13
2019-05-09T04:51:58.848Z,17.70
2019-05-09T04:54:28.064Z,19.13
2019-05-09T04:56:57.560Z,17.70
2019-05-09T04:59:28.312Z,16.30
2019-05-09T05:02:08.756Z,16.17
2019-05-09T05:04:37.753Z,14.13
2019-05-09T05:07:07.618Z,13.00
2019-05-09T05:09:37.935Z,13.10
2019-05-09T05:12:08.380Z,12.10
2019-05-09T05:14:38.498Z,12.17
2019-05-09T05:17:11.217Z,13.20
2019-05-09T05:19:38.436Z,11.67
2019-05-09T05:22:34.577Z,13.00
2019-05-09T05:25:04.476Z,13.67
2019-05-09T05:27:33.093Z,13.27
2019-05-09T05:30:02.013Z,12.63
2019-05-09T05:32:57.932Z,13.63
2019-05-09T05:35:31.742Z,12.60
2019-05-09T05:38:01.020Z,13.07
2019-05-09T05:40:32.917Z,12.53
2019-05-09T05:43:00.692Z,11.40
2019-05-09T05:45:31.235Z,11.93
2019-05-09T05:48:08.669Z,10.07
2019-05-09T05:50:38.221Z,10.03
2019-05-09T05:53:07.962Z,11.07
2019-05-09T05:55:37.947Z,10.60
2019-05-09T05:58:08.555Z,10.10
2019-05-09T06:00:37.812Z,10.33
2019-05-09T06:03:08.718Z,9.83
2019-05-09T06:05:38.356Z,10.27
2019-05-09T06:08:08.197Z,9.93
2019-05-09T06:10:37.844Z,9.10
2019-05-09T06:13:07.932Z,9.43
2019-05-09T06:15:37.873Z,10.07
2019-05-09T06:18:07.983Z,9.73
2019-05-09T06:20:38.562Z,10.60
2019-05-09T06:23:08.616Z,9.97
2019-05-09T06:25:38.959Z,10.53
2019-05-09T06:28:08.437Z,12.13
2019-05-09T06:30:40.892Z,11.47
2019-05-09T06:33:08.912Z,12.00
2019-05-09T06:35:38.082Z,11.77
2019-05-09T06:38:07.899Z,11.30
2019-05-09T06:40:38.288Z,11.97
2019-05-09T06:43:21.343Z,12.40
2019-05-09T06:46:24.475Z,10.97
2019-05-09T06:48:53.385Z,12.27
2019-05-09T06:51:22.635Z,11.57
2019-05-09T06:53:51.285Z,11.67
2019-05-09T06:56:20.181Z,11.13
2019-05-09T06:58:49.096Z,9.93
2019-05-09T07:01:30.883Z,10.90
2019-05-09T07:04:05.429Z,11.83
2019-05-09T07:06:38.146Z,13.23
2019-05-09T07:09:14.285Z,11.80
2019-05-09T07:11:43.252Z,11.97
2019-05-09T07:14:33.010Z,11.37
2019-05-09T07:17:00.700Z,10.37
2019-05-09T07:19:29.389Z,10.33
2019-05-09T07:22:18.457Z,10.50
2019-05-09T07:25:06.729Z,11.00
2019-05-09T07:27:31.272Z,10.30
2019-05-09T07:30:03.043Z,10.60
2019-05-09T07:32:38.189Z,10.90
2019-05-09T07:35:08.813Z,10.77
2019-05-09T07:37:38.315Z,11.80
2019-05-09T07:40:08.458Z,8.03
2019-05-09T07:42:39.101Z,8.30
2019-05-09T07:45:09.017Z,7.83
2019-05-09T07:47:38.857Z,8.40
2019-05-09T07:50:08.718Z,8.23
2019-05-09T07:52:38.776Z,9.07
2019-05-09T07:55:09.052Z,8.53
2019-05-09T07:57:46.184Z,8.93
2019-05-09T08:00:09.560Z,9.70
2019-05-09T08:02:38.849Z,9.47
2019-05-09T08:05:08.744Z,9.80
2019-05-09T08:07:38.184Z,9.53
2019-05-09T08:10:08.829Z,10.67
2019-05-09T08:12:38.898Z,10.00
2019-05-09T08:15:16.137Z,10.57
2019-05-09T08:17:38.601Z,9.93
2019-05-09T08:20:08.122Z,9.93
2019-05-09T08:22:42.056Z,11.27
2019-05-09T08:25:08.252Z,10.80
2019-05-09T08:27:37.813Z,10.63
2019-05-09T08:30:08.233Z,11.03
2019-05-09T08:32:37.727Z,11.93
2019-05-09T08:35:08.419Z,12.13
2019-05-09T08:37:39.069Z,11.97
2019-05-09T08:40:08.167Z,11.70
2019-05-09T08:42:37.772Z,12.57
2019-05-09T08:45:17.394Z,11.33
2019-05-09T08:47:38.212Z,11.43
2019-05-09T08:50:23.424Z,10.60
2019-05-09T08:52:52.392Z,14.80
2019-05-09T08:55:21.930Z,10.93
2019-05-09T08:57:50.574Z,10.60
2019-05-09T09:00:19.762Z,10.60
2019-05-09T09:02:48.443Z,10.83
2019-05-09T09:05:18.755Z,9.97
2019-05-09T09:07:48.448Z,10.73
2019-05-09T09:10:18.819Z,9.63
2019-05-09T09:12:48.024Z,11.40
2019-05-09T09:15:18.023Z,8.67
2019-05-09T09:17:49.149Z,11.47
2019-05-09T09:20:18.290Z,7.93
2019-05-09T09:22:47.997Z,8.70
2019-05-09T09:25:18.408Z,7.17
2019-05-09T09:27:50.770Z,8.53
2019-05-09T09:30:24.673Z,7.10
2019-05-09T09:32:48.532Z,6.97
2019-05-09T09:35:18.684Z,8.30
2019-05-09T09:37:51.924Z,8.97
2019-05-09T09:40:18.189Z,7.90
2019-05-09T09:42:48.979Z,7.03
2019-05-09T09:45:18.440Z,7.13
2019-05-09T09:47:48.408Z,6.67
2019-05-09T09:50:17.905Z,6.73
2019-05-09T09:52:49.006Z,8.37
2019-05-09T09:55:18.460Z,9.00
2019-05-09T09:57:48.429Z,7.67
2019-05-09T10:00:48.264Z,7.23
2019-05-09T10:03:24.944Z,5.77
2019-05-09T10:05:53.905Z,10.67
2019-05-09T10:08:22.796Z,5.77
2019-05-09T10:10:52.091Z,7.27
2019-05-09T10:13:21.209Z,5.13
2019-05-09T10:16:01.059Z,5.37
2019-05-09T10:18:47.850Z,8.27
2019-05-09T10:21:27.700Z,5.50
2019-05-09T10:23:57.566Z,5.33
2019-05-09T10:26:28.349Z,7.60
2019-05-09T10:28:57.167Z,5.83
2019-05-09T10:31:28.078Z,3.30
2019-05-09T10:33:58.028Z,7.63
2019-05-09T10:36:27.852Z,8.70
2019-05-09T10:38:58.491Z,5.23
2019-05-09T10:41:27.938Z,4.73
2019-05-09T10:44:12.710Z,5.47
2019-05-09T10:46:58.870Z,5.80
2019-05-09T10:49:25.956Z,7.10
2019-05-09T10:51:54.844Z,5.23
2019-05-09T10:54:23.816Z,6.77
2019-05-09T10:56:53.061Z,4.37
2019-05-09T10:59:22.350Z,8.23
2019-05-09T11:01:51.306Z,6.07
2019-05-09T11:04:20.524Z,4.63
2019-05-09T11:06:49.141Z,6.37
2019-05-09T11:09:18.386Z,5.90
2019-05-09T11:11:48.419Z,5.97
2019-05-09T11:14:32.554Z,4.77
2019-05-09T11:16:54.211Z,5.03
2019-05-09T11:19:18.713Z,4.77
2019-05-09T11:21:47.927Z,4.33
2019-05-09T11:24:18.738Z,6.23
2019-05-09T11:26:48.085Z,4.90
2019-05-09T11:29:18.740Z,4.13
2019-05-09T11:31:47.806Z,4.17
2019-05-09T11:34:18.886Z,9.30
2019-05-09T11:36:49.731Z,6.20
2019-05-09T11:39:35.079Z,8.90
2019-05-09T11:41:48.839Z,5.90
2019-05-09T11:44:18.419Z,5.53
2019-05-09T11:46:47.775Z,6.70
2019-05-09T11:49:18.031Z,5.90
2019-05-09T11:51:48.277Z,4.53
2019-05-09T11:54:19.526Z,5.80
2019-05-09T11:56:48.229Z,6.13
2019-05-09T11:59:18.937Z,6.73
2019-05-09T12:01:48.311Z,6.93
2019-05-09T12:04:18.763Z,5.70
2019-05-09T12:06:49.351Z,5.73
2019-05-09T12:09:18.274Z,5.37
2019-05-09T12:11:48.295Z,5.73
2019-05-09T12:14:17.538Z,7.00
2019-05-09T12:16:48.077Z,4.97
2019-05-09T12:19:17.945Z,6.77
2019-05-09T12:21:48.314Z,6.33
2019-05-09T12:24:18.359Z,3.57
2019-05-09T12:26:48.161Z,3.67
2019-05-09T12:29:19.630Z,8.30
2019-05-09T12:31:48.644Z,5.77
2019-05-09T12:34:19.250Z,5.97
2019-05-09T12:36:49.275Z,6.00
2019-05-09T12:39:19.000Z,5.00
2019-05-09T12:41:48.646Z,5.00
2019-05-09T12:44:18.452Z,4.03
2019-05-09T12:46:48.767Z,4.83
2019-05-09T12:49:19.010Z,5.90
2019-05-09T12:51:47.987Z,3.90
2019-05-09T12:54:19.077Z,5.77
2019-05-09T12:56:48.652Z,6.23
2019-05-09T12:59:18.794Z,4.67
2019-05-09T13:01:49.129Z,9.47
2019-05-09T13:04:18.814Z,4.43
2019-05-09T13:06:48.909Z,6.03
2019-05-09T13:09:18.117Z,6.60
2019-05-09T13:11:48.294Z,6.30
2019-05-09T13:14:19.412Z,6.13
2019-05-09T13:17:00.065Z,4.40
2019-05-09T13:19:53.659Z,6.13
2019-05-09T13:22:22.543Z,6.37
2019-05-09T13:24:51.148Z,4.70
2019-05-09T13:27:19.801Z,6.33
2019-05-09T13:29:49.273Z,7.27
2019-05-09T13:32:18.917Z,6.03
2019-05-09T13:34:48.661Z,4.83
2019-05-09T13:37:18.866Z,5.07
2019-05-09T13:39:48.110Z,5.53
2019-05-09T13:42:19.685Z,4.53
2019-05-09T13:44:47.627Z,5.63
2019-05-09T13:47:17.898Z,5.67
2019-05-09T13:49:48.444Z,7.47
2019-05-09T13:52:18.067Z,5.70
2019-05-09T13:54:48.242Z,5.73
2019-05-09T13:57:18.859Z,5.50
2019-05-09T13:59:48.656Z,6.20
2019-05-09T14:02:18.750Z,5.20
2019-05-09T14:04:48.718Z,8.03
2019-05-09T14:07:19.263Z,8.17
2019-05-09T14:09:48.644Z,10.20
2019-05-09T14:12:18.076Z,9.50
2019-05-09T14:14:46.696Z,9.57
2019-05-09T14:17:16.182Z,8.70
2019-05-09T14:19:50.310Z,11.70
2019-05-09T14:22:17.933Z,11.07
2019-05-09T14:24:48.363Z,9.90
2019-05-09T14:27:18.664Z,6.30
2019-05-09T14:29:49.661Z,15.47
2019-05-09T14:32:18.923Z,10.10
2019-05-09T14:34:48.227Z,11.60
2019-05-09T14:37:18.151Z,9.07
2019-05-09T14:39:55.948Z,9.07
2019-05-09T14:42:18.843Z,15.57
2019-05-09T14:44:47.987Z,10.00
2019-05-09T14:47:17.843Z,7.83
2019-05-09T14:49:49.969Z,8.30
2019-05-09T14:52:17.742Z,6.83
2019-05-09T14:54:48.301Z,7.27
2019-05-09T14:57:17.550Z,6.40
2019-05-09T14:59:46.763Z,8.03
2019-05-09T15:02:17.906Z,4.53
2019-05-09T15:04:48.553Z,4.50
2019-05-09T15:07:19.259Z,5.93
2019-05-09T15:09:47.445Z,8.10
2019-05-09T15:12:18.461Z,6.10
2019-05-09T15:14:47.961Z,6.63
2019-05-09T15:17:18.510Z,7.67
2019-05-09T15:19:59.439Z,4.67
2019-05-09T15:22:18.261Z,4.50
2019-05-09T15:24:47.839Z,6.17
2019-05-09T15:27:17.689Z,6.13
2019-05-09T15:29:48.668Z,8.03
2019-05-09T15:32:18.362Z,5.13
2019-05-09T15:34:47.278Z,5.77
2019-05-09T15:37:18.419Z,5.17
2019-05-09T15:39:48.475Z,6.17
2019-05-09T15:42:18.384Z,5.97
2019-05-09T15:44:47.854Z,9.10
2019-05-09T15:47:27.623Z,5.03
2019-05-09T15:49:57.983Z,7.93
2019-05-09T15:52:28.498Z,7.93
2019-05-09T15:54:58.054Z,3.37
2019-05-09T15:57:27.576Z,2.90
2019-05-09T15:59:58.882Z,5.60
2019-05-09T16:02:28.223Z,3.87
2019-05-09T16:04:58.399Z,5.03
2019-05-09T16:07:28.494Z,4.63
2019-05-09T16:09:58.154Z,2.97
2019-05-09T16:12:27.756Z,5.57
2019-05-09T16:14:56.925Z,5.33
2019-05-09T16:17:28.315Z,2.70
2019-05-09T16:19:57.766Z,2.80
2019-05-09T16:22:28.423Z,3.93
2019-05-09T16:24:57.819Z,3.60
2019-05-09T16:27:26.503Z,3.30
2019-05-09T16:29:57.764Z,6.53
2019-05-09T16:32:25.614Z,5.87
2019-05-09T16:34:54.241Z,6.37
2019-05-09T16:37:22.879Z,4.97
2019-05-09T16:39:51.880Z,3.60
2019-05-09T16:42:20.868Z,4.83
2019-05-09T16:44:50.299Z,6.03
2019-05-09T16:47:21.751Z,4.37
2019-05-09T16:49:50.241Z,4.27
2019-05-09T16:52:19.200Z,4.37
2019-05-09T16:54:50.502Z,5.13
2019-05-09T16:57:19.448Z,3.37
2019-05-09T16:59:48.149Z,4.47
2019-05-09T17:02:23.952Z,3.60
2019-05-09T17:04:47.791Z,5.17
2019-05-09T17:07:18.067Z,5.23
2019-05-09T17:09:48.508Z,4.07
2019-05-09T17:12:18.614Z,4.47
2019-05-09T17:14:47.717Z,3.83
2019-05-09T17:17:17.869Z,3.97
2019-05-09T17:19:48.083Z,3.70
2019-05-09T17:22:35.625Z,3.30
2019-05-09T17:25:05.185Z,3.80
2019-05-09T17:27:34.089Z,3.53
2019-05-09T17:30:02.769Z,4.60
2019-05-09T17:32:31.766Z,5.07
2019-05-09T17:35:00.664Z,7.00
2019-05-09T17:37:29.392Z,3.93
2019-05-09T17:39:59.322Z,4.87
2019-05-09T17:42:27.931Z,6.40
2019-05-09T17:44:57.902Z,3.90
2019-05-09T17:47:28.388Z,1.60
2019-05-09T17:49:57.510Z,3.47
2019-05-09T17:52:26.101Z,1.50
2019-05-09T17:54:55.097Z,1.77
2019-05-09T17:57:24.024Z,1.70
2019-05-09T17:59:52.955Z,1.77
2019-05-09T18:02:22.254Z,1.57
2019-05-09T18:07:22.390Z,3.83
2019-05-09T18:09:51.697Z,1.80
2019-05-09T18:12:20.690Z,1.40
2019-05-09T18:14:49.675Z,1.40
2019-05-09T18:17:18.980Z,1.83
2019-05-09T18:19:47.629Z,1.50
2019-05-09T18:22:18.605Z,1.60
2019-05-09T18:24:48.257Z,1.87
2019-05-09T18:27:18.106Z,2.03
2019-05-09T18:29:47.736Z,1.80
2019-05-09T18:32:35.582Z,1.87
2019-05-09T18:35:12.148Z,2.00
2019-05-09T18:37:41.035Z,2.00
2019-05-09T18:40:10.030Z,1.57
2019-05-09T18:42:38.922Z,1.83
2019-05-09T18:45:08.733Z,1.73
2019-05-09T18:47:37.724Z,2.50
2019-05-09T18:50:14.228Z,1.90
2019-05-09T18:52:42.931Z,2.13
2019-05-09T18:55:12.728Z,2.77
2019-05-09T18:57:41.688Z,3.37
2019-05-09T19:00:11.811Z,2.60
2019-05-09T19:02:41.539Z,3.10
2019-05-09T19:05:13.047Z,3.10
2019-05-09T19:07:41.870Z,3.30
2019-05-09T19:10:11.456Z,3.47
2019-05-09T19:12:42.030Z,5.27
2019-05-09T19:15:16.241Z,3.60
2019-05-09T19:17:52.793Z,3.43
2019-05-09T19:20:43.914Z,2.40
2019-05-09T19:23:12.907Z,2.70
2019-05-09T19:25:41.880Z,2.50
2019-05-09T19:28:10.778Z,3.53
2019-05-09T19:30:39.976Z,2.20
2019-05-09T19:33:08.970Z,2.00
2019-05-09T19:35:38.392Z,3.07
2019-05-09T19:38:07.378Z,2.83
2019-05-09T19:40:36.291Z,2.80
2019-05-09T19:43:04.961Z,2.40
2019-05-09T19:45:34.555Z,3.30
2019-05-09T19:48:03.649Z,7.30
2019-05-09T19:50:32.543Z,3.20
2019-05-09T19:53:04.858Z,2.77
2019-05-09T19:55:33.809Z,2.70
2019-05-09T19:58:02.831Z,2.90
2019-05-09T20:00:32.422Z,2.97
2019-05-09T20:03:01.158Z,3.33
2019-05-09T20:05:31.439Z,2.77
2019-05-09T20:08:00.412Z,39.57
2019-05-09T20:10:47.057Z,25.00
2019-05-09T20:13:41.208Z,20.60
2019-05-09T20:16:10.607Z,13.50
2019-05-09T20:18:39.606Z,10.47
2019-05-09T20:21:08.473Z,11.13
2019-05-09T20:23:37.151Z,7.10
2019-05-09T20:26:06.392Z,6.60
2019-05-09T20:28:35.575Z,6.97
2019-05-09T20:31:07.642Z,6.43
2019-05-09T20:33:37.287Z,6.43
2019-05-09T20:36:06.174Z,6.17
2019-05-09T20:38:35.140Z,5.27
2019-05-09T20:41:04.297Z,5.53
2019-05-09T20:43:33.741Z,5.07
2019-05-09T20:46:02.802Z,5.10
2019-05-09T20:48:32.033Z,4.50
2019-05-09T20:51:01.230Z,6.47
2019-05-09T20:53:30.004Z,5.07
2019-05-09T20:55:58.809Z,5.07
2019-05-09T20:58:28.031Z,4.33
2019-05-09T21:00:56.805Z,4.47
2019-05-09T21:03:25.898Z,4.47
2019-05-09T21:05:55.112Z,4.60
2019-05-09T21:08:23.923Z,4.87
2019-05-09T21:10:56.878Z,3.87
2019-05-09T21:13:26.033Z,4.70
2019-05-09T21:15:58.194Z,5.10
2019-05-09T21:18:30.185Z,4.60
2019-05-09T21:20:59.602Z,4.43
2019-05-09T21:23:29.009Z,4.80
2019-05-09T21:25:58.388Z,4.93
2019-05-09T21:28:27.867Z,4.40
2019-05-09T21:30:56.665Z,4.27
2019-05-09T21:33:25.804Z,4.13
2019-05-09T21:35:55.078Z,4.30
2019-05-09T21:38:24.300Z,4.03
2019-05-09T21:40:53.195Z,5.53
2019-05-09T21:43:21.800Z,4.63
2019-05-09T21:45:50.745Z,5.23
2019-05-09T21:48:19.659Z,4.07
2019-05-09T21:50:48.268Z,4.53
2019-05-09T21:53:17.245Z,4.47
2019-05-09T21:55:46.246Z,4.30
2019-05-09T21:58:15.121Z,3.80
2019-05-09T22:00:45.053Z,4.10
2019-05-09T22:03:14.056Z,4.50
2019-05-09T22:05:43.027Z,4.10
2019-05-09T22:08:11.920Z,3.83
2019-05-09T22:10:41.109Z,3.87
2019-05-09T22:13:10.016Z,4.00
2019-05-09T22:15:38.995Z,3.70
2019-05-09T22:18:08.013Z,4.20
2019-05-09T22:20:36.896Z,3.70
2019-05-09T22:23:06.668Z,4.07
2019-05-09T22:25:35.687Z,4.10
2019-05-09T22:28:04.404Z,4.80
2019-05-09T22:30:33.638Z,4.13
2019-05-09T22:33:02.674Z,5.20
2019-05-09T22:35:31.662Z,6.83
2019-05-09T22:38:00.867Z,4.80
2019-05-09T22:40:29.853Z,5.50
2019-05-09T22:42:58.506Z,4.90
2019-05-09T22:45:27.543Z,4.87
2019-05-09T22:47:56.149Z,4.87
2019-05-09T22:50:25.104Z,5.10
2019-05-09T22:52:54.001Z,5.00
2019-05-09T22:55:22.899Z,5.47
2019-05-09T22:57:52.361Z,4.63
2019-05-09T23:00:21.290Z,5.10
2019-05-09T23:02:49.921Z,5.23
2019-05-09T23:05:18.532Z,5.30
2019-05-09T23:07:47.456Z,5.77
2019-05-09T23:10:16.110Z,5.07
2019-05-09T23:12:45.039Z,5.80
2019-05-09T23:15:15.673Z,6.90
2019-05-09T23:17:44.861Z,6.60
2019-05-09T23:20:32.670Z,6.47
2019-05-09T23:23:22.071Z,6.73
2019-05-09T23:25:50.968Z,7.20
2019-05-09T23:28:19.899Z,7.27
2019-05-09T23:30:50.520Z,8.63
2019-05-09T23:33:20.507Z,8.90
2019-05-09T23:35:49.394Z,7.63
2019-05-09T23:38:18.286Z,7.83
2019-05-09T23:40:47.297Z,9.47
2019-05-09T23:43:16.198Z,9.17
2019-05-09T23:45:44.877Z,7.87
2019-05-09T23:48:14.158Z,10.23
2019-05-09T23:50:43.458Z,9.20
2019-05-09T23:53:12.105Z,9.20
2019-05-09T23:55:58.630Z,10.33
2019-05-09T23:58:45.460Z,9.07
